Time;durP1;ratioP1;P1;durP2;ratioP2;P2;SDS_P1;SDS_P2;PMS_P1;PMS_P2;Temp;Humidity;BMP_temperature;BMP_pressure;BME280_temperature;BME280_humidity;BME280_pressure;Samples;Min_cycle;Max_cycle;Signal;HPM_P1;HPM_P2
2021/07/16 00:01:06;;;;;;;8.20;7.38;;;;;;;;;;5114294;27;20374;-84
2021/07/16 00:03:32;;;;;;;8.25;7.25;;;;;;;;;;5114147;27;20381;-85
2021/07/16 00:05:58;;;;;;;7.50;6.80;;;;;;;;;;5114206;27;20472;-86
2021/07/16 00:08:24;;;;;;;7.85;6.97;;;;;;;;;;5132472;27;20506;-84
2021/07/16 00:10:50;;;;;;;7.20;6.28;;;;;;;;;;5113609;27;20999;-85
2021/07/16 00:13:16;;;;;;;6.47;5.50;;;;;;;;;;5114089;27;20396;-85
2021/07/16 00:15:43;;;;;;;9.07;6.53;;;;;;;;;;5113964;27;20381;-85
2021/07/16 00:18:09;;;;;;;6.88;5.95;;;;;;;;;;5132293;27;20485;-85
2021/07/16 00:20:35;;;;;;;7.88;6.13;;;;;;;;;;5132570;27;20376;-86
2021/07/16 00:23:01;;;;;;;7.75;6.30;;;;;;;;;;5114170;27;20464;-85
2021/07/16 00:25:27;;;;;;;8.90;6.23;;;;;;;;;;5113668;27;21254;-85
2021/07/16 00:27:53;;;;;;;7.57;6.30;;;;;;;;;;5116108;27;20425;-85
2021/07/16 00:30:19;;;;;;;7.20;6.50;;;;;;;;;;5101945;28;20390;-85
2021/07/16 00:32:45;;;;;;;9.52;6.50;;;;;;;;;;5101844;28;20385;-85
2021/07/16 00:35:11;;;;;;;7.72;6.05;;;;;;;;;;5102678;28;20808;-85
2021/07/16 00:37:37;;;;;;;9.65;6.38;;;;;;;;;;5091182;28;20377;-85
2021/07/16 00:40:06;;;;;;;8.75;6.50;;;;;;;;;;5090775;28;20381;-86
2021/07/16 00:42:32;;;;;;;7.07;6.30;;;;;;;;;;5101758;28;20381;-85
2021/07/16 00:44:58;;;;;;;6.77;6.03;;;;;;;;;;5100638;28;20858;-86
2021/07/16 00:47:24;;;;;;;6.82;6.00;;;;;;;;;;5090544;28;20482;-85
2021/07/16 00:49:50;;;;;;;9.27;6.10;;;;;;;;;;5091753;28;20378;-85
2021/07/16 00:52:16;;;;;;;6.90;6.30;;;;;;;;;;5089665;28;20388;-84
2021/07/16 00:54:43;;;;;;;6.97;6.22;;;;;;;;;;5090391;28;20539;-85
2021/07/16 00:57:09;;;;;;;8.73;6.75;;;;;;;;;;5101372;28;20866;-85
2021/07/16 00:59:35;;;;;;;8.57;5.85;;;;;;;;;;5091729;28;20828;-84
2021/07/16 01:02:02;;;;;;;10.03;6.30;;;;;;;;;;5092197;28;20390;-84
2021/07/16 01:04:28;;;;;;;7.75;6.30;;;;;;;;;;5111221;28;20382;-85
2021/07/16 01:06:54;;;;;;;6.63;6.00;;;;;;;;;;5111204;28;20374;-84
2021/07/16 01:09:20;;;;;;;7.70;5.88;;;;;;;;;;5092793;28;20701;-84
2021/07/16 01:11:46;;;;;;;7.63;5.68;;;;;;;;;;5110921;28;20381;-84
2021/07/16 01:14:13;;;;;;;7.35;5.85;;;;;;;;;;5111019;28;20390;-85
2021/07/16 01:16:39;;;;;;;6.20;5.60;;;;;;;;;;5110841;28;20848;-84
2021/07/16 01:19:06;;;;;;;6.13;5.50;;;;;;;;;;5092908;28;20381;-84
2021/07/16 01:21:32;;;;;;;6.95;5.80;;;;;;;;;;5092293;28;20370;-84
2021/07/16 01:23:59;;;;;;;6.68;5.57;;;;;;;;;;5092596;28;20363;-84
2021/07/16 01:26:25;;;;;;;6.57;5.93;;;;;;;;;;5110949;28;20474;-85
2021/07/16 01:28:52;;;;;;;7.63;6.03;;;;;;;;;;5092640;28;20363;-85
2021/07/16 01:31:19;;;;;;;7.90;5.90;;;;;;;;;;5092663;28;20387;-85
2021/07/16 01:33:45;;;;;;;6.28;5.68;;;;;;;;;;5092533;28;20423;-85
2021/07/16 01:36:11;;;;;;;6.20;5.60;;;;;;;;;;5110342;28;20740;-85
2021/07/16 01:38:37;;;;;;;6.45;5.88;;;;;;;;;;5109705;28;20763;-85
2021/07/16 01:41:03;;;;;;;8.13;6.20;;;;;;;;;;5110688;28;20416;-84
2021/07/16 01:43:29;;;;;;;7.13;6.00;;;;;;;;;;5092420;28;20420;-85
2021/07/16 01:45:55;;;;;;;7.95;5.95;;;;;;;;;;5092228;28;20370;-85
2021/07/16 01:48:22;;;;;;;8.67;6.00;;;;;;;;;;5110239;28;20375;-85
2021/07/16 01:50:50;;;;;;;7.18;6.22;;;;;;;;;;5092124;28;20382;-85
2021/07/16 01:53:20;;;;;;;8.63;6.50;;;;;;;;;;5110340;28;20375;-84
2021/07/16 01:55:46;;;;;;;6.95;6.35;;;;;;;;;;5091726;28;20379;-85
2021/07/16 01:58:13;;;;;;;10.37;6.57;;;;;;;;;;5092245;28;20740;-85
2021/07/16 02:00:41;;;;;;;7.25;6.47;;;;;;;;;;5091751;28;20466;-85
2021/07/16 02:03:08;;;;;;;8.75;6.70;;;;;;;;;;5110384;28;20363;-84
2021/07/16 02:05:35;;;;;;;7.28;6.57;;;;;;;;;;5091750;28;20378;-85
2021/07/16 02:08:02;;;;;;;7.23;6.30;;;;;;;;;;5110246;28;20363;-85
2021/07/16 02:10:29;;;;;;;8.05;6.85;;;;;;;;;;5110074;28;20371;-85
2021/07/16 02:12:56;;;;;;;7.22;6.53;;;;;;;;;;5110241;28;20382;-84
2021/07/16 02:15:23;;;;;;;7.40;6.72;;;;;;;;;;5091767;28;20883;-85
2021/07/16 02:17:49;;;;;;;7.80;6.80;;;;;;;;;;5091490;28;20402;-85
2021/07/16 02:20:19;;;;;;;11.73;7.25;;;;;;;;;;5091816;28;20371;-85
2021/07/16 02:22:45;;;;;;;7.80;7.10;;;;;;;;;;5091230;28;20876;-85
2021/07/16 02:25:11;;;;;;;7.60;6.90;;;;;;;;;;5091230;28;20367;-85
2021/07/16 02:27:37;;;;;;;8.13;7.30;;;;;;;;;;5109467;28;20371;-85
2021/07/16 02:30:05;;;;;;;8.38;7.60;;;;;;;;;;5091154;28;20389;-85
2021/07/16 02:32:31;;;;;;;8.82;7.97;;;;;;;;;;5109647;28;20363;-86
2021/07/16 02:34:57;;;;;;;8.38;7.55;;;;;;;;;;5091035;28;20405;-86
2021/07/16 02:37:23;;;;;;;8.47;7.60;;;;;;;;;;5091342;28;20370;-85
2021/07/16 02:39:49;;;;;;;7.40;6.70;;;;;;;;;;5109530;28;20363;-86
2021/07/16 02:42:15;;;;;;;8.10;7.30;;;;;;;;;;5109167;28;20411;-86
2021/07/16 02:44:41;;;;;;;9.00;7.30;;;;;;;;;;5091263;28;20389;-85
2021/07/16 02:47:07;;;;;;;8.50;7.57;;;;;;;;;;5090929;28;20433;-85
2021/07/16 02:49:33;;;;;;;9.88;7.75;;;;;;;;;;5090756;28;20377;-85
2021/07/16 02:51:59;;;;;;;9.00;6.90;;;;;;;;;;5109419;28;20417;-86
2021/07/16 02:54:25;;;;;;;10.52;7.60;;;;;;;;;;5090723;28;20399;-85
2021/07/16 02:56:51;;;;;;;9.07;6.65;;;;;;;;;;5091025;28;20401;-84
2021/07/16 02:59:17;;;;;;;8.90;7.50;;;;;;;;;;5090853;28;20856;-88
2021/07/16 03:01:53;;;;;;;8.88;7.78;;;;;;;;;;5090993;28;20382;-87
2021/07/16 03:04:19;;;;;;;8.05;7.30;;;;;;;;;;5091206;28;20459;-85
2021/07/16 03:06:45;;;;;;;9.13;8.10;;;;;;;;;;5109228;28;20927;-86
2021/07/16 03:09:11;;;;;;;9.45;8.35;;;;;;;;;;5109528;28;20369;-86
2021/07/16 03:11:37;;;;;;;10.20;8.20;;;;;;;;;;5091122;28;20413;-86
2021/07/16 03:14:04;;;;;;;9.15;8.23;;;;;;;;;;5090549;28;20441;-85
2021/07/16 03:16:30;;;;;;;8.52;7.88;;;;;;;;;;5090629;28;20391;-85
2021/07/16 03:18:59;;;;;;;9.67;8.13;;;;;;;;;;5108913;28;20367;-84
2021/07/16 03:21:26;;;;;;;9.43;8.45;;;;;;;;;;5109356;28;20355;-87
2021/07/16 03:23:52;;;;;;;7.57;6.90;;;;;;;;;;5090717;28;20873;-85
2021/07/16 03:26:17;;;;;;;8.48;7.57;;;;;;;;;;5109018;28;20377;-85
2021/07/16 03:28:44;;;;;;;8.02;7.22;;;;;;;;;;5090406;28;20370;-84
2021/07/16 03:31:10;;;;;;;9.48;7.63;;;;;;;;;;5090763;28;20370;-84
2021/07/16 03:33:36;;;;;;;8.52;7.18;;;;;;;;;;5090497;28;20387;-85
2021/07/16 03:36:02;;;;;;;8.80;6.78;;;;;;;;;;5090558;28;20375;-85
2021/07/16 03:38:28;;;;;;;9.02;7.32;;;;;;;;;;5090305;28;20376;-85
2021/07/16 03:40:57;;;;;;;9.43;7.45;;;;;;;;;;5108933;28;20363;-84
2021/07/16 03:43:23;;;;;;;9.90;7.45;;;;;;;;;;5090287;28;20760;-85
2021/07/16 03:45:49;;;;;;;9.07;7.40;;;;;;;;;;5109229;28;20371;-84
2021/07/16 03:48:15;;;;;;;10.65;7.35;;;;;;;;;;5090521;28;20549;-85
2021/07/16 03:50:41;;;;;;;9.80;7.43;;;;;;;;;;5090663;28;20382;-85
2021/07/16 03:53:07;;;;;;;8.02;6.90;;;;;;;;;;5090489;28;20391;-84
2021/07/16 03:55:33;;;;;;;9.57;6.68;;;;;;;;;;5090339;28;20429;-84
2021/07/16 03:57:59;;;;;;;7.28;6.57;;;;;;;;;;5108707;28;20405;-85
2021/07/16 04:00:30;;;;;;;11.05;7.57;;;;;;;;;;5090788;28;20374;-85
2021/07/16 04:02:59;;;;;;;9.10;6.30;;;;;;;;;;5112240;28;20383;-84
2021/07/16 04:05:25;;;;;;;9.38;7.15;;;;;;;;;;5112515;28;20382;-85
2021/07/16 04:07:54;;;;;;;8.60;6.80;;;;;;;;;;5093799;28;20366;-84
2021/07/16 04:10:21;;;;;;;8.52;6.43;;;;;;;;;;5112528;28;20723;-84
2021/07/16 04:13:00;;;;;;;12.45;6.80;;;;;;;;;;5112569;28;20793;-86
2021/07/16 04:15:27;;;;;;;7.25;6.55;;;;;;;;;;5093537;28;20903;-86
2021/07/16 04:17:57;;;;;;;7.40;6.70;;;;;;;;;;5094377;28;20807;-86
2021/07/16 04:20:24;;;;;;;8.30;7.03;;;;;;;;;;5094390;28;20369;-86
2021/07/16 04:22:50;;;;;;;8.30;7.50;;;;;;;;;;5093893;28;20841;-87
2021/07/16 04:25:18;;;;;;;8.82;7.22;;;;;;;;;;5094374;28;20382;-86
2021/07/16 04:27:45;;;;;;;7.37;6.67;;;;;;;;;;5111829;28;20367;-85
2021/07/16 04:30:11;;;;;;;8.18;7.25;;;;;;;;;;5111650;28;20379;-86
2021/07/16 04:32:41;;;;;;;9.20;7.73;;;;;;;;;;5111759;28;20401;-85
2021/07/16 04:35:08;;;;;;;10.38;7.72;;;;;;;;;;5093360;28;20760;-86
2021/07/16 04:37:36;;;;;;;8.23;7.43;;;;;;;;;;5112239;28;20363;-87
2021/07/16 04:40:03;;;;;;;10.80;7.15;;;;;;;;;;5111675;28;20370;-86
2021/07/16 04:42:29;;;;;;;9.13;7.30;;;;;;;;;;5111582;28;20500;-86
2021/07/16 04:44:55;;;;;;;7.65;6.97;;;;;;;;;;5093533;28;20470;-86
2021/07/16 04:47:21;;;;;;;8.88;6.88;;;;;;;;;;5111761;28;20382;-85
2021/07/16 04:49:47;;;;;;;8.25;6.53;;;;;;;;;;5111302;28;20453;-84
2021/07/16 04:52:13;;;;;;;7.38;6.68;;;;;;;;;;5111613;28;20374;-84
2021/07/16 04:54:39;;;;;;;7.60;6.85;;;;;;;;;;5092901;28;20896;-85
2021/07/16 04:57:08;;;;;;;9.20;7.22;;;;;;;;;;5111569;28;20408;-85
2021/07/16 04:59:34;;;;;;;9.43;8.43;;;;;;;;;;5093371;28;20452;-87
2021/07/16 05:02:00;;;;;;;11.15;8.35;;;;;;;;;;5092924;28;21256;-85
2021/07/16 05:04:26;;;;;;;9.90;8.13;;;;;;;;;;5111368;28;20856;-87
2021/07/16 05:06:52;;;;;;;9.55;8.65;;;;;;;;;;5093136;28;20702;-87
2021/07/16 05:09:18;;;;;;;10.70;9.43;;;;;;;;;;5093202;28;20410;-85
2021/07/16 05:11:45;;;;;;;12.75;10.00;;;;;;;;;;5093350;28;20367;-89
2021/07/16 05:14:11;;;;;;;11.25;10.25;;;;;;;;;;5093107;28;20494;-86
2021/07/16 05:16:37;;;;;;;11.93;10.73;;;;;;;;;;5111541;28;20376;-86
2021/07/16 05:19:03;;;;;;;11.35;10.35;;;;;;;;;;5111173;28;20378;-88
2021/07/16 05:21:29;;;;;;;11.70;10.50;;;;;;;;;;5093089;28;20382;-89
2021/07/16 05:23:55;;;;;;;12.07;9.90;;;;;;;;;;5093465;28;20382;-86
2021/07/16 05:26:21;;;;;;;13.13;9.43;;;;;;;;;;5111228;28;20845;-86
2021/07/16 05:28:49;;;;;;;11.48;8.55;;;;;;;;;;5111016;28;20420;-87
2021/07/16 05:31:16;;;;;;;9.10;8.20;;;;;;;;;;5095271;28;20379;-89
2021/07/16 05:33:41;;;;;;;8.88;8.02;;;;;;;;;;5092849;28;20736;-87
2021/07/16 05:36:08;;;;;;;8.85;8.07;;;;;;;;;;5093307;28;20450;-86
2021/07/16 05:38:34;;;;;;;9.40;8.18;;;;;;;;;;5092497;28;20385;-85
2021/07/16 05:41:01;;;;;;;9.30;8.40;;;;;;;;;;5098635;28;20886;-86
2021/07/16 05:43:27;;;;;;;9.75;8.65;;;;;;;;;;5093934;28;20363;-84
2021/07/16 05:45:53;;;;;;;9.53;8.53;;;;;;;;;;5112153;28;20718;-85
2021/07/16 05:48:21;;;;;;;8.75;8.00;;;;;;;;;;5112142;28;20378;-83
2021/07/16 05:50:47;;;;;;;9.88;8.98;;;;;;;;;;5092283;28;20462;-85
2021/07/16 05:53:14;;;;;;;10.18;9.38;;;;;;;;;;5110780;28;20378;-85
2021/07/16 05:55:40;;;;;;;10.07;9.20;;;;;;;;;;5093009;28;20902;-84
2021/07/16 05:58:06;;;;;;;9.73;8.75;;;;;;;;;;5093317;28;20394;-87
2021/07/16 06:00:32;;;;;;;10.15;9.15;;;;;;;;;;5093876;28;20427;-84
2021/07/16 06:02:59;;;;;;;10.07;9.27;;;;;;;;;;5111810;28;20367;-83
2021/07/16 06:05:25;;;;;;;11.37;9.50;;;;;;;;;;5094003;28;20367;-86
2021/07/16 06:07:51;;;;;;;10.80;9.80;;;;;;;;;;5092682;28;20586;-85
2021/07/16 06:10:17;;;;;;;10.70;9.75;;;;;;;;;;5110589;28;20370;-85
2021/07/16 06:12:43;;;;;;;9.90;9.00;;;;;;;;;;5091628;28;20366;-86
2021/07/16 06:15:10;;;;;;;10.55;9.45;;;;;;;;;;5110052;28;20408;-89
2021/07/16 06:17:36;;;;;;;11.00;9.50;;;;;;;;;;5092471;28;20367;-86
2021/07/16 06:20:04;;;;;;;12.43;9.57;;;;;;;;;;5092440;28;20891;-84
2021/07/16 06:22:29;;;;;;;9.40;8.47;;;;;;;;;;5091910;28;20375;-85
2021/07/16 06:24:55;;;;;;;10.95;9.00;;;;;;;;;;5091487;28;20382;-86
2021/07/16 06:27:22;;;;;;;13.63;9.25;;;;;;;;;;5091794;28;20469;-86
2021/07/16 06:29:47;;;;;;;13.10;8.38;;;;;;;;;;5091573;28;20367;-84
2021/07/16 06:32:13;;;;;;;14.02;8.65;;;;;;;;;;5091677;28;20435;-84
2021/07/16 06:34:40;;;;;;;10.85;7.90;;;;;;;;;;5091997;28;20405;-86
2021/07/16 06:37:06;;;;;;;9.02;8.05;;;;;;;;;;5094056;28;20375;-83
2021/07/16 06:39:32;;;;;;;9.00;7.80;;;;;;;;;;5091744;28;20371;-87
2021/07/16 06:41:58;;;;;;;8.20;7.05;;;;;;;;;;5111613;28;20363;-87
2021/07/16 06:44:24;;;;;;;8.93;6.70;;;;;;;;;;5092335;28;20389;-89
2021/07/16 06:46:50;;;;;;;6.80;6.10;;;;;;;;;;5092694;28;20378;-85
2021/07/16 06:49:16;;;;;;;8.57;5.78;;;;;;;;;;5093326;28;20790;-86
2021/07/16 06:51:42;;;;;;;6.70;5.30;;;;;;;;;;5093501;28;20450;-84
2021/07/16 06:54:08;;;;;;;5.68;5.10;;;;;;;;;;5091699;28;20415;-85
2021/07/16 06:56:37;;;;;;;5.75;5.25;;;;;;;;;;5091404;28;20367;-85
2021/07/16 06:59:06;;;;;;;6.40;5.63;;;;;;;;;;5092591;28;20452;-87
2021/07/16 07:01:32;;;;;;;9.73;6.35;;;;;;;;;;5109809;28;20371;-85
2021/07/16 07:03:58;;;;;;;6.07;5.47;;;;;;;;;;5090703;28;20884;-85
2021/07/16 07:06:24;;;;;;;7.30;5.60;;;;;;;;;;5091221;28;20375;-85
2021/07/16 07:08:50;;;;;;;6.47;5.47;;;;;;;;;;5109794;28;20417;-86
2021/07/16 07:11:16;;;;;;;7.82;5.93;;;;;;;;;;5109991;28;20423;-85
2021/07/16 07:13:42;;;;;;;6.28;5.70;;;;;;;;;;5089440;28;20379;-85
2021/07/16 07:16:08;;;;;;;6.40;5.50;;;;;;;;;;5108332;28;20377;-85
2021/07/16 07:18:34;;;;;;;6.18;5.57;;;;;;;;;;5090806;28;20465;-87
2021/07/16 07:21:01;;;;;;;7.65;5.93;;;;;;;;;;5090871;28;20370;-86
2021/07/16 07:23:28;;;;;;;6.95;5.97;;;;;;;;;;5091319;28;20856;-91
2021/07/16 07:25:54;;;;;;;6.90;6.28;;;;;;;;;;5095081;28;20379;-87
2021/07/16 07:28:21;;;;;;;7.40;5.90;;;;;;;;;;5108150;28;20388;-89
2021/07/16 07:30:47;;;;;;;6.87;6.10;;;;;;;;;;5115358;28;20454;-87
2021/07/16 07:33:14;;;;;;;10.85;6.38;;;;;;;;;;5096053;28;20406;-87
2021/07/16 07:35:40;;;;;;;7.45;6.55;;;;;;;;;;5096514;28;20402;-87
2021/07/16 07:38:06;;;;;;;7.30;6.22;;;;;;;;;;5103013;28;20371;-85
2021/07/16 07:40:32;;;;;;;8.97;6.83;;;;;;;;;;5103618;28;20375;-85
2021/07/16 07:43:00;;;;;;;7.10;6.40;;;;;;;;;;5103438;28;20379;-85
2021/07/16 07:45:26;;;;;;;8.35;6.95;;;;;;;;;;5100085;28;20379;-85
2021/07/16 07:47:52;;;;;;;6.77;6.13;;;;;;;;;;5095170;28;20362;-86
2021/07/16 07:50:18;;;;;;;8.63;6.45;;;;;;;;;;5095802;28;20469;-87
2021/07/16 07:52:46;;;;;;;8.10;6.47;;;;;;;;;;5094564;28;20367;-87
2021/07/16 07:55:12;;;;;;;11.02;6.68;;;;;;;;;;5094524;28;20879;-86
2021/07/16 07:57:38;;;;;;;10.00;6.78;;;;;;;;;;5094867;28;20437;-88
2021/07/16 08:00:05;;;;;;;10.10;6.95;;;;;;;;;;5095463;28;20382;-87
2021/07/16 08:02:32;;;;;;;8.13;6.30;;;;;;;;;;5091570;28;20379;-86
2021/07/16 08:04:58;;;;;;;6.70;6.10;;;;;;;;;;5082385;28;20950;-87
2021/07/16 08:07:24;;;;;;;8.57;6.47;;;;;;;;;;5093969;28;20370;-87
2021/07/16 08:09:50;;;;;;;7.27;6.47;;;;;;;;;;5097003;28;20434;-85
2021/07/16 08:12:16;;;;;;;11.45;6.75;;;;;;;;;;5074600;28;20368;-86
2021/07/16 08:14:42;;;;;;;7.78;6.43;;;;;;;;;;5092994;28;20519;-86
2021/07/16 08:17:08;;;;;;;7.47;6.67;;;;;;;;;;5097018;28;20397;-86
2021/07/16 08:19:35;;;;;;;9.02;6.95;;;;;;;;;;5093414;28;20379;-86
2021/07/16 08:22:01;;;;;;;7.30;6.60;;;;;;;;;;5094803;28;20415;-86
2021/07/16 08:24:27;;;;;;;8.27;6.85;;;;;;;;;;5112582;28;20450;-86
2021/07/16 08:26:53;;;;;;;7.55;6.78;;;;;;;;;;5107950;28;20483;-87
2021/07/16 08:29:19;;;;;;;10.10;7.07;;;;;;;;;;5073930;28;20379;-89
2021/07/16 08:31:46;;;;;;;7.50;6.80;;;;;;;;;;5074002;28;20382;-88
2021/07/16 08:34:12;;;;;;;9.20;7.10;;;;;;;;;;5074761;28;20400;-89
2021/07/16 08:36:38;;;;;;;9.95;6.68;;;;;;;;;;5076241;28;20388;-86
2021/07/16 08:39:05;;;;;;;9.73;7.25;;;;;;;;;;5111782;28;20440;-85
2021/07/16 08:41:31;;;;;;;8.37;6.70;;;;;;;;;;5093987;28;20381;-86
2021/07/16 08:43:57;;;;;;;8.30;6.60;;;;;;;;;;5093019;28;20960;-85
2021/07/16 08:46:23;;;;;;;7.85;6.32;;;;;;;;;;5093503;28;20440;-87
2021/07/16 08:48:50;;;;;;;7.38;6.25;;;;;;;;;;5073318;28;20373;-87
2021/07/16 08:51:17;;;;;;;9.35;6.70;;;;;;;;;;5072829;28;20380;-87
2021/07/16 08:53:43;;;;;;;9.07;6.60;;;;;;;;;;5073259;28;20408;-86
2021/07/16 08:56:09;;;;;;;10.10;6.88;;;;;;;;;;5073968;28;20410;-91
2021/07/16 08:58:35;;;;;;;8.05;6.95;;;;;;;;;;5102865;28;20404;-86
2021/07/16 09:01:01;;;;;;;9.32;6.50;;;;;;;;;;5092396;28;20385;-86
2021/07/16 09:03:29;;;;;;;7.68;6.63;;;;;;;;;;5092997;28;20732;-88
2021/07/16 09:05:55;;;;;;;8.77;6.23;;;;;;;;;;5095160;28;20416;-87
2021/07/16 09:08:21;;;;;;;8.07;6.72;;;;;;;;;;5072652;28;20375;-86
2021/07/16 09:10:49;;;;;;;9.60;6.40;;;;;;;;;;5072226;28;20409;-86
2021/07/16 09:13:16;;;;;;;7.72;5.97;;;;;;;;;;5091237;28;20390;-86
2021/07/16 09:15:49;;;;;;;8.82;6.00;;;;;;;;;;5073027;28;20471;-93
2021/07/16 09:18:21;;;;;;;7.95;5.97;;;;;;;;;;5072888;28;20728;-87
2021/07/16 09:20:48;;;;;;;6.43;5.78;;;;;;;;;;5072191;28;20453;-85
2021/07/16 09:23:16;;;;;;;7.13;6.43;;;;;;;;;;5100056;28;20384;-85
2021/07/16 09:25:43;;;;;;;8.20;6.23;;;;;;;;;;5102077;28;20890;-86
2021/07/16 09:28:30;;;;;;;9.82;6.68;;;;;;;;;;5082962;28;20373;-87
2021/07/16 09:31:10;;;;;;;8.07;6.10;;;;;;;;;;5117957;27;20363;-86
2021/07/16 09:33:52;;;;;;;7.47;6.57;;;;;;;;;;5082504;28;20901;-87
2021/07/16 09:36:40;;;;;;;9.10;6.90;;;;;;;;;;5080599;28;20368;-89
2021/07/16 09:39:09;;;;;;;7.55;6.40;;;;;;;;;;5082415;28;20381;-87
2021/07/16 09:41:46;;;;;;;8.18;7.03;;;;;;;;;;5080083;28;20365;-88
2021/07/16 09:44:12;;;;;;;10.82;7.65;;;;;;;;;;5088856;28;20387;-89
2021/07/16 09:46:38;;;;;;;8.60;6.93;;;;;;;;;;5085306;27;20417;-87
2021/07/16 09:49:11;;;;;;;9.90;7.20;;;;;;;;;;5081807;28;20958;-93
2021/07/16 09:51:40;;;;;;;8.40;6.70;;;;;;;;;;5090674;28;20412;-88
2021/07/16 09:54:06;;;;;;;11.53;7.43;;;;;;;;;;5081937;28;20399;-86
2021/07/16 09:56:34;;;;;;;10.27;7.55;;;;;;;;;;5082394;28;20384;-89
2021/07/16 09:59:02;;;;;;;10.82;7.50;;;;;;;;;;5097976;28;20411;-87
2021/07/16 10:01:29;;;;;;;8.75;7.65;;;;;;;;;;5080896;28;20409;-86
2021/07/16 10:03:59;;;;;;;14.65;8.10;;;;;;;;;;5082469;28;20709;-87
2021/07/16 10:06:26;;;;;;;9.88;7.10;;;;;;;;;;5080773;28;20387;-86
2021/07/16 10:08:53;;;;;;;12.38;7.75;;;;;;;;;;5099158;28;20375;-89
2021/07/16 10:11:20;;;;;;;12.90;8.05;;;;;;;;;;5101242;28;20385;-86
2021/07/16 10:13:48;;;;;;;10.05;7.72;;;;;;;;;;5081552;28;20423;-90
2021/07/16 10:16:14;;;;;;;9.93;7.60;;;;;;;;;;5080245;28;20396;-87
2021/07/16 10:18:41;;;;;;;9.55;7.68;;;;;;;;;;5089034;28;20375;-86
2021/07/16 10:21:07;;;;;;;10.77;7.82;;;;;;;;;;5099712;28;20845;-86
2021/07/16 10:23:33;;;;;;;11.77;8.00;;;;;;;;;;5081018;28;20463;-88
2021/07/16 10:26:01;;;;;;;10.20;8.00;;;;;;;;;;5098202;28;20421;-89
2021/07/16 10:28:42;;;;;;;8.48;7.55;;;;;;;;;;5084433;28;20386;-90
2021/07/16 10:31:26;;;;;;;11.55;7.93;;;;;;;;;;5101359;28;20451;-88
2021/07/16 10:33:52;;;;;;;11.80;7.90;;;;;;;;;;5080303;28;20404;-86
2021/07/16 10:36:38;;;;;;;10.35;8.32;;;;;;;;;;5079162;28;20371;-86
2021/07/16 10:39:05;;;;;;;8.85;7.88;;;;;;;;;;5079426;28;20757;-87
2021/07/16 10:41:32;;;;;;;9.13;7.70;;;;;;;;;;5098652;28;20366;-88
2021/07/16 10:43:58;;;;;;;9.20;7.43;;;;;;;;;;5081385;28;20374;-88
2021/07/16 10:46:28;;;;;;;12.68;8.50;;;;;;;;;;5080158;28;20381;-86
2021/07/16 10:48:54;;;;;;;11.18;7.72;;;;;;;;;;5098566;28;20375;-87
2021/07/16 10:51:25;;;;;;;9.18;8.27;;;;;;;;;;5081034;28;20377;-88
2021/07/16 10:53:51;;;;;;;12.40;8.48;;;;;;;;;;5098130;27;20427;-87
2021/07/16 10:56:19;;;;;;;10.40;7.90;;;;;;;;;;5080509;28;20371;-87
2021/07/16 10:58:49;;;;;;;8.50;7.63;;;;;;;;;;5115205;28;20375;-88
2021/07/16 11:01:27;;;;;;;11.30;7.83;;;;;;;;;;5081077;28;20377;-87
2021/07/16 11:03:53;;;;;;;11.27;7.73;;;;;;;;;;5097885;28;20379;-90
2021/07/16 11:06:20;;;;;;;12.48;8.38;;;;;;;;;;5106594;28;20375;-89
2021/07/16 11:08:47;;;;;;;8.60;7.70;;;;;;;;;;5081815;28;20387;-88
2021/07/16 11:11:20;;;;;;;10.10;7.63;;;;;;;;;;5082511;28;20367;-87
2021/07/16 11:13:54;;;;;;;8.97;7.63;;;;;;;;;;5092559;28;20806;-88
2021/07/16 11:16:34;;;;;;;14.35;7.93;;;;;;;;;;5083402;28;20357;-87
2021/07/16 11:19:02;;;;;;;9.65;7.75;;;;;;;;;;5088969;28;20375;-83
2021/07/16 11:21:40;;;;;;;10.25;7.18;;;;;;;;;;5090661;28;20380;-85
2021/07/16 11:24:06;;;;;;;9.10;7.25;;;;;;;;;;5089118;28;20459;-87
2021/07/16 11:26:33;;;;;;;68.77;11.93;;;;;;;;;;5103718;28;21017;-88
2021/07/16 11:29:00;;;;;;;10.50;7.55;;;;;;;;;;5085394;28;20367;-91
2021/07/16 11:31:26;;;;;;;9.98;7.45;;;;;;;;;;5081549;28;20458;-87
2021/07/16 11:33:56;;;;;;;10.37;7.50;;;;;;;;;;5083197;28;20774;-89
2021/07/16 11:36:22;;;;;;;12.32;7.63;;;;;;;;;;5082382;28;20368;-89
2021/07/16 11:38:54;;;;;;;11.77;7.80;;;;;;;;;;5100603;28;20387;-87
2021/07/16 11:41:30;;;;;;;10.95;7.45;;;;;;;;;;5084476;28;20446;-91
2021/07/16 11:43:59;;;;;;;8.50;7.40;;;;;;;;;;5089335;28;20470;-86
2021/07/16 11:46:26;;;;;;;8.70;7.43;;;;;;;;;;5090286;28;20414;-87
2021/07/16 11:48:52;;;;;;;10.20;7.95;;;;;;;;;;5103474;28;20453;-88
2021/07/16 11:51:29;;;;;;;9.15;7.82;;;;;;;;;;5103517;27;20393;-88
2021/07/16 11:53:55;;;;;;;8.73;7.40;;;;;;;;;;5089989;27;20425;-88
2021/07/16 11:56:26;;;;;;;9.00;7.40;;;;;;;;;;5088903;28;20445;-88
2021/07/16 11:58:52;;;;;;;10.23;7.55;;;;;;;;;;5090080;28;20392;-87
2021/07/16 12:01:24;;;;;;;12.02;8.40;;;;;;;;;;5088894;28;20485;-90
2021/07/16 12:03:51;;;;;;;10.80;9.65;;;;;;;;;;5090649;28;20937;-87
2021/07/16 12:06:19;;;;;;;11.65;9.90;;;;;;;;;;5092477;28;20383;-88
2021/07/16 12:08:52;;;;;;;10.98;9.82;;;;;;;;;;5092638;28;20849;-92
2021/07/16 12:11:29;;;;;;;15.82;10.35;;;;;;;;;;5091972;28;20414;-89
2021/07/16 12:14:01;;;;;;;11.65;9.77;;;;;;;;;;5085025;28;21359;-90
2021/07/16 12:16:33;;;;;;;10.88;9.73;;;;;;;;;;5110503;28;20856;-89
2021/07/16 12:19:00;;;;;;;10.27;9.18;;;;;;;;;;5092442;28;20394;-88
2021/07/16 12:21:29;;;;;;;12.45;9.48;;;;;;;;;;5090586;28;20375;-88
2021/07/16 12:23:56;;;;;;;12.65;11.35;;;;;;;;;;5091048;28;20383;-88
2021/07/16 12:26:25;;;;;;;14.40;11.23;;;;;;;;;;5091958;28;20883;-88
2021/07/16 12:29:02;;;;;;;16.02;11.98;;;;;;;;;;5092362;28;20398;-87
2021/07/16 12:31:32;;;;;;;15.38;13.48;;;;;;;;;;5091986;28;20882;-91
2021/07/16 12:33:58;;;;;;;16.75;13.55;;;;;;;;;;5109091;28;20401;-89
2021/07/16 12:36:26;;;;;;;16.90;13.73;;;;;;;;;;5090252;28;20457;-90
2021/07/16 12:38:56;;;;;;;19.33;14.20;;;;;;;;;;5091256;28;20371;-86
2021/07/16 12:41:23;;;;;;;18.38;13.68;;;;;;;;;;5091713;28;20403;-91
2021/07/16 12:43:50;;;;;;;16.55;13.70;;;;;;;;;;5092428;28;20381;-88
2021/07/16 12:46:26;;;;;;;19.10;13.93;;;;;;;;;;5091523;28;20398;-91
2021/07/16 12:48:52;;;;;;;14.85;13.00;;;;;;;;;;5091607;28;20369;-85
2021/07/16 12:51:19;;;;;;;17.20;13.20;;;;;;;;;;5090736;28;20375;-86
2021/07/16 12:53:51;;;;;;;18.65;12.45;;;;;;;;;;5109589;28;20427;-88
2021/07/16 12:56:20;;;;;;;16.98;11.60;;;;;;;;;;5090693;28;20761;-88
2021/07/16 12:58:49;;;;;;;16.13;11.63;;;;;;;;;;5091442;28;20454;-89
2021/07/16 13:01:24;;;;;;;15.23;12.38;;;;;;;;;;5109481;28;20454;-84
2021/07/16 13:03:50;;;;;;;16.02;12.75;;;;;;;;;;5090356;28;20379;-90
2021/07/16 13:06:17;;;;;;;22.58;13.25;;;;;;;;;;5090166;28;20430;-88
2021/07/16 13:08:44;;;;;;;19.27;12.97;;;;;;;;;;5108910;28;20443;-88
2021/07/16 13:11:13;;;;;;;17.85;13.00;;;;;;;;;;5089703;28;20379;-88
2021/07/16 13:13:39;;;;;;;14.77;13.27;;;;;;;;;;5090364;28;20942;-89
2021/07/16 13:16:08;;;;;;;13.90;12.45;;;;;;;;;;5090493;28;20398;-88
2021/07/16 13:18:34;;;;;;;15.05;12.50;;;;;;;;;;5108843;28;20374;-88
2021/07/16 13:21:00;;;;;;;14.15;11.73;;;;;;;;;;5109030;28;20399;-85
2021/07/16 13:23:26;;;;;;;12.50;11.30;;;;;;;;;;5109262;28;20371;-88
2021/07/16 13:25:56;;;;;;;14.23;11.45;;;;;;;;;;5091168;28;20386;-92
2021/07/16 13:28:22;;;;;;;13.23;11.20;;;;;;;;;;5091529;28;20367;-88
2021/07/16 13:30:48;;;;;;;12.80;10.85;;;;;;;;;;5108891;28;20362;-90
2021/07/16 13:33:20;;;;;;;12.48;11.15;;;;;;;;;;5108328;28;20367;-87
2021/07/16 13:35:46;;;;;;;14.00;11.00;;;;;;;;;;5089904;28;20406;-87
2021/07/16 13:38:12;;;;;;;12.80;10.32;;;;;;;;;;5090506;28;20371;-88
2021/07/16 13:40:38;;;;;;;15.60;11.65;;;;;;;;;;5109053;28;20431;-89
2021/07/16 13:43:04;;;;;;;15.20;11.23;;;;;;;;;;5090076;28;20457;-90
2021/07/16 13:45:30;;;;;;;12.13;10.85;;;;;;;;;;5090248;28;20943;-89
2021/07/16 13:47:56;;;;;;;15.57;11.88;;;;;;;;;;5090445;28;20428;-92
2021/07/16 13:50:22;;;;;;;13.52;12.05;;;;;;;;;;5088790;28;20370;-88
2021/07/16 13:52:48;;;;;;;15.60;12.07;;;;;;;;;;5106895;28;20369;-87
2021/07/16 13:55:14;;;;;;;15.48;12.60;;;;;;;;;;5089984;28;20470;-87
2021/07/16 13:57:40;;;;;;;15.63;13.18;;;;;;;;;;5082388;28;20458;-85
2021/07/16 14:00:07;;;;;;;16.80;13.05;;;;;;;;;;5072917;28;20376;-89
2021/07/16 14:02:34;;;;;;;15.55;13.20;;;;;;;;;;5072093;28;20391;-89
2021/07/16 14:05:00;;;;;;;16.73;13.32;;;;;;;;;;5072683;28;20404;-87
2021/07/16 14:07:26;;;;;;;15.70;12.98;;;;;;;;;;5076101;28;20385;-90
2021/07/16 14:09:53;;;;;;;19.17;13.85;;;;;;;;;;5097393;28;20383;-90
2021/07/16 14:12:19;;;;;;;16.08;13.50;;;;;;;;;;5090883;28;20465;-86
2021/07/16 14:14:48;;;;;;;20.13;13.85;;;;;;;;;;5072323;28;20788;-88
2021/07/16 14:17:15;;;;;;;15.93;13.98;;;;;;;;;;5072379;28;20407;-87
2021/07/16 14:19:42;;;;;;;16.95;13.95;;;;;;;;;;5072499;28;20890;-89
2021/07/16 14:22:08;;;;;;;16.08;12.48;;;;;;;;;;5071862;28;20784;-86
2021/07/16 14:24:33;;;;;;;17.77;13.63;;;;;;;;;;5071347;28;20380;-86
2021/07/16 14:27:00;;;;;;;15.18;13.57;;;;;;;;;;5071417;28;20430;-89
2021/07/16 14:29:26;;;;;;;18.73;14.05;;;;;;;;;;5071950;28;20455;-91
2021/07/16 14:31:52;;;;;;;17.77;14.23;;;;;;;;;;5072658;28;20862;-87
2021/07/16 14:34:20;;;;;;;17.55;14.43;;;;;;;;;;5088676;28;20398;-91
2021/07/16 14:36:46;;;;;;;18.55;14.73;;;;;;;;;;5091786;28;20725;-86